Time;durP1;ratioP1;P1;durP2;ratioP2;P2;SDS_P1;SDS_P2;PMS_P1;PMS_P2;Temp;Humidity;BMP_temperature;BMP_pressure;BME280_temperature;BME280_humidity;BME280_pressure;Samples;Min_cycle;Max_cycle;Signal;HPM_P1;HPM_P2
2023/06/05 00:00:42;;;;;;;5.15;2.33;;;;;;;;;;6114736;23;20089;-57
2023/06/05 00:03:09;;;;;;;2.92;2.00;;;;;;;;;;6115676;23;20029;-55
2023/06/05 00:05:43;;;;;;;3.35;2.08;;;;;;;;;;6116764;23;20026;-47
2023/06/05 00:08:10;;;;;;;2.95;2.20;;;;;;;;;;6112113;23;20073;-49
2023/06/05 00:10:44;;;;;;;4.97;2.42;;;;;;;;;;6113269;23;20076;-49
2023/06/05 00:13:11;;;;;;;3.45;2.10;;;;;;;;;;6114427;23;20498;-46
2023/06/05 00:15:39;;;;;;;3.65;1.58;;;;;;;;;;6114870;23;20030;-66
2023/06/05 00:18:14;;;;;;;2.13;1.77;;;;;;;;;;6112903;23;20513;-52
2023/06/05 00:20:41;;;;;;;2.28;1.98;;;;;;;;;;6113529;23;20022;-48
2023/06/05 00:23:11;;;;;;;3.78;2.05;;;;;;;;;;6113711;23;20421;-51
2023/06/05 00:25:45;;;;;;;4.43;2.28;;;;;;;;;;6114971;23;20025;-48
2023/06/05 00:28:12;;;;;;;3.08;2.03;;;;;;;;;;6116995;23;20026;-49
2023/06/05 00:30:40;;;;;;;2.50;1.83;;;;;;;;;;6117141;23;20096;-49
2023/06/05 00:33:30;;;;;;;3.53;1.70;;;;;;;;;;6117547;23;20049;-53
2023/06/05 00:36:04;;;;;;;2.53;1.90;;;;;;;;;;6116197;23;20029;-54
2023/06/05 00:38:38;;;;;;;4.60;2.13;;;;;;;;;;6114706;23;20057;-55
2023/06/05 00:41:12;;;;;;;3.63;2.35;;;;;;;;;;6114207;23;20021;-56
2023/06/05 00:43:46;;;;;;;6.03;2.58;;;;;;;;;;6111819;23;20085;-48
2023/06/05 00:46:13;;;;;;;3.10;2.25;;;;;;;;;;6113846;23;20053;-49
2023/06/05 00:48:42;;;;;;;2.90;2.10;;;;;;;;;;6117739;23;20494;-45
2023/06/05 00:51:16;;;;;;;2.78;2.05;;;;;;;;;;6115136;23;20498;-46
2023/06/05 00:53:46;;;;;;;2.45;1.98;;;;;;;;;;6116381;23;20053;-46
2023/06/05 00:56:20;;;;;;;4.93;2.30;;;;;;;;;;6115588;23;20026;-47
2023/06/05 00:58:48;;;;;;;2.38;1.90;;;;;;;;;;6115425;23;20026;-47
2023/06/05 01:01:16;;;;;;;2.00;1.80;;;;;;;;;;6115694;23;20533;-58
2023/06/05 01:03:52;;;;;;;2.40;2.10;;;;;;;;;;6117514;23;20084;-58
2023/06/05 01:06:19;;;;;;;4.65;2.15;;;;;;;;;;6115481;23;20033;-59
2023/06/05 01:08:54;;;;;;;5.63;2.28;;;;;;;;;;6115669;23;20026;-57
2023/06/05 01:11:46;;;;;;;2.05;1.85;;;;;;;;;;6113572;23;20437;-66
2023/06/05 01:14:23;;;;;;;3.15;2.30;;;;;;;;;;6116202;23;20030;-60
2023/06/05 01:16:54;;;;;;;4.75;2.15;;;;;;;;;;6113349;23;20021;-50
2023/06/05 01:19:30;;;;;;;2.50;1.88;;;;;;;;;;6113853;23;20109;-47
2023/06/05 01:22:01;;;;;;;2.63;2.08;;;;;;;;;;6116124;23;20089;-49
2023/06/05 01:24:36;;;;;;;4.82;2.28;;;;;;;;;;6115772;23;20030;-49
2023/06/05 01:27:15;;;;;;;5.40;2.40;;;;;;;;;;6116100;23;20026;-53
2023/06/05 01:30:10;;;;;;;4.93;2.15;;;;;;;;;;6113274;23;20026;-65
2023/06/05 01:32:41;;;;;;;2.42;1.92;;;;;;;;;;6117336;23;20081;-65
2023/06/05 01:35:16;;;;;;;2.25;2.00;;;;;;;;;;6115158;23;20033;-65
2023/06/05 01:37:48;;;;;;;3.13;2.10;;;;;;;;;;6116475;23;20082;-65
2023/06/05 01:40:35;;;;;;;3.30;2.08;;;;;;;;;;6115538;23;20022;-51
2023/06/05 01:43:09;;;;;;;2.35;1.85;;;;;;;;;;6115388;23;20032;-59
2023/06/05 01:45:43;;;;;;;4.35;2.30;;;;;;;;;;6115412;23;20022;-56
2023/06/05 01:48:11;;;;;;;3.03;2.53;;;;;;;;;;6116585;23;20026;-58
2023/06/05 01:50:45;;;;;;;3.25;2.40;;;;;;;;;;6114293;23;20073;-57
2023/06/05 01:53:12;;;;;;;4.68;2.03;;;;;;;;;;6114046;23;20022;-57
2023/06/05 01:55:41;;;;;;;3.05;2.40;;;;;;;;;;6113608;23;20033;-59
2023/06/05 01:58:15;;;;;;;3.03;2.15;;;;;;;;;;6111759;23;20029;-56
2023/06/05 02:00:43;;;;;;;3.13;2.17;;;;;;;;;;6115307;23;20432;-55
2023/06/05 02:03:17;;;;;;;4.13;2.35;;;;;;;;;;6111527;23;20085;-54
2023/06/05 02:05:45;;;;;;;4.85;2.00;;;;;;;;;;6110172;23;20518;-55
2023/06/05 02:08:13;;;;;;;4.43;2.75;;;;;;;;;;6116591;23;20058;-56
2023/06/05 02:10:47;;;;;;;3.28;2.40;;;;;;;;;;6115060;23;20041;-49
2023/06/05 02:13:19;;;;;;;3.85;2.10;;;;;;;;;;6114785;23;20025;-48
2023/06/05 02:15:56;;;;;;;5.20;2.33;;;;;;;;;;6117492;23;20033;-48
2023/06/05 02:18:25;;;;;;;3.80;2.15;;;;;;;;;;6115361;23;20033;-48
2023/06/05 02:20:59;;;;;;;5.57;2.38;;;;;;;;;;6114867;23;20022;-50
2023/06/05 02:23:26;;;;;;;8.32;2.25;;;;;;;;;;6115027;23;20064;-46
2023/06/05 02:25:54;;;;;;;3.05;2.00;;;;;;;;;;6115576;23;20481;-49
2023/06/05 02:28:27;;;;;;;2.95;2.25;;;;;;;;;;6115514;23;20033;-60
2023/06/05 02:30:55;;;;;;;3.00;2.20;;;;;;;;;;6115615;23;20029;-59
2023/06/05 02:33:23;;;;;;;;;;;;;;;;;;6112750;23;20056;-60
2023/06/05 02:35:56;;;;;;;3.30;2.10;;;;;;;;;;6110482;23;20447;-60
2023/06/05 02:38:23;;;;;;;3.20;2.30;;;;;;;;;;6115504;23;20033;-46
2023/06/05 02:41:04;;;;;;;2.97;2.13;;;;;;;;;;6116149;23;20044;-49
2023/06/05 02:43:31;;;;;;;5.75;2.60;;;;;;;;;;6113961;23;20034;-48
2023/06/05 02:46:05;;;;;;;4.05;2.40;;;;;;;;;;6111756;23;20029;-49
2023/06/05 02:48:32;;;;;;;2.95;2.42;;;;;;;;;;6115959;23;20575;-50
2023/06/05 02:51:00;;;;;;;5.22;2.85;;;;;;;;;;6114568;23;20026;-52
2023/06/05 02:53:35;;;;;;;4.82;2.30;;;;;;;;;;6116146;23;20496;-49
2023/06/05 02:56:02;;;;;;;3.38;2.30;;;;;;;;;;6115869;23;20366;-52
2023/06/05 02:58:37;;;;;;;3.58;2.25;;;;;;;;;;6114799;23;20085;-48
2023/06/05 03:01:08;;;;;;;6.05;2.50;;;;;;;;;;6114848;23;20374;-51
2023/06/05 03:03:35;;;;;;;3.05;2.33;;;;;;;;;;6116668;23;20362;-49
2023/06/05 03:06:09;;;;;;;7.72;2.47;;;;;;;;;;6113667;23;20104;-65
2023/06/05 03:08:37;;;;;;;4.65;3.00;;;;;;;;;;6116235;23;20030;-46
2023/06/05 03:11:11;;;;;;;4.63;2.83;;;;;;;;;;6110449;23;20026;-48
2023/06/05 03:13:38;;;;;;;3.65;2.42;;;;;;;;;;6115570;23;20026;-47
2023/06/05 03:16:07;;;;;;;3.88;2.20;;;;;;;;;;6111694;23;20140;-48
2023/06/05 03:18:41;;;;;;;5.07;2.53;;;;;;;;;;6112683;23;20022;-49
2023/06/05 03:21:10;;;;;;;4.25;2.40;;;;;;;;;;6114316;23;20030;-48
2023/06/05 03:23:44;;;;;;;2.75;2.13;;;;;;;;;;6115848;23;20073;-56
2023/06/05 03:26:11;;;;;;;5.43;2.30;;;;;;;;;;6111726;23;20083;-53
2023/06/05 03:28:39;;;;;;;3.75;2.42;;;;;;;;;;6115030;23;20026;-52
2023/06/05 03:31:13;;;;;;;3.95;2.50;;;;;;;;;;6116326;23;20501;-55
2023/06/05 03:33:41;;;;;;;3.90;2.63;;;;;;;;;;6115348;23;20048;-59
2023/06/05 03:36:18;;;;;;;4.22;2.55;;;;;;;;;;6113711;23;20557;-49
2023/06/05 03:38:45;;;;;;;4.82;2.85;;;;;;;;;;6113783;23;20026;-66
2023/06/05 03:41:13;;;;;;;5.63;3.28;;;;;;;;;;6117003;23;20838;-65
2023/06/05 03:43:54;;;;;;;6.93;3.55;;;;;;;;;;6116691;23;20441;-66
2023/06/05 03:46:23;;;;;;;18.48;4.75;;;;;;;;;;6116041;23;20022;-65
2023/06/05 03:49:05;;;;;;;23.48;5.45;;;;;;;;;;6117396;23;20101;-65
2023/06/05 03:51:32;;;;;;;18.63;5.10;;;;;;;;;;6116271;23;20557;-65
2023/06/05 03:54:08;;;;;;;48.40;7.38;;;;;;;;;;6116897;23;20501;-66
2023/06/05 03:56:49;;;;;;;47.75;8.57;;;;;;;;;;6117882;23;20035;-66
2023/06/05 03:59:25;;;;;;;41.30;7.95;;;;;;;;;;6116810;23;20100;-66
2023/06/05 04:01:52;;;;;;;40.28;8.85;;;;;;;;;;6115953;23;20029;-65
2023/06/05 04:04:26;;;;;;;54.50;7.97;;;;;;;;;;6114877;23;20025;-50
2023/06/05 04:06:58;;;;;;;74.90;9.75;;;;;;;;;;6117445;23;20076;-66
2023/06/05 04:09:32;;;;;;;37.20;8.73;;;;;;;;;;6116393;23;20026;-65
2023/06/05 04:12:00;;;;;;;58.08;10.18;;;;;;;;;;6116820;23;20026;-66
2023/06/05 04:14:27;;;;;;;84.20;11.90;;;;;;;;;;6116420;23;20030;-66
2023/06/05 04:17:01;;;;;;;70.70;11.88;;;;;;;;;;6116372;23;20466;-66
2023/06/05 04:19:29;;;;;;;;;;;;;;;;;;6116496;23;20065;-66
2023/06/05 04:21:56;;;;;;;92.45;10.90;;;;;;;;;;6118646;23;19917;-48
2023/06/05 04:24:30;;;;;;;70.82;9.90;;;;;;;;;;6115048;23;20033;-48
2023/06/05 04:27:00;;;;;;;94.30;12.57;;;;;;;;;;6117881;23;20084;-49
2023/06/05 04:29:27;;;;;;;62.75;12.02;;;;;;;;;;6116806;23;20062;-49
2023/06/05 04:32:01;;;;;;;79.55;10.90;;;;;;;;;;6091939;23;20029;-48
2023/06/05 04:34:28;;;;;;;91.90;11.82;;;;;;;;;;6115894;23;20029;-66
2023/06/05 04:37:13;;;;;;;52.28;11.57;;;;;;;;;;6115934;23;20084;-66
2023/06/05 04:39:40;;;;;;;58.03;11.15;;;;;;;;;;6115993;23;20026;-66
2023/06/05 04:42:21;;;;;;;47.88;8.20;;;;;;;;;;6114647;23;20033;-65
2023/06/05 04:44:58;;;;;;;30.23;8.77;;;;;;;;;;6112849;23;20033;-66
2023/06/05 04:47:32;;;;;;;51.97;9.15;;;;;;;;;;6117869;23;20033;-65
2023/06/05 04:50:03;;;;;;;31.48;9.35;;;;;;;;;;6115966;23;20238;-50
2023/06/05 04:52:40;;;;;;;43.05;10.18;;;;;;;;;;6117196;23;20552;-50
2023/06/05 04:55:14;;;;;;;171.10;14.20;;;;;;;;;;6112536;23;20105;-50
2023/06/05 04:57:43;;;;;;;128.93;13.65;;;;;;;;;;6113385;23;20022;-51
2023/06/05 05:00:17;;;;;;;30.90;10.38;;;;;;;;;;6116451;23;20030;-49
2023/06/05 05:02:45;;;;;;;92.60;14.02;;;;;;;;;;6113611;23;20061;-55
2023/06/05 05:05:13;;;;;;;;;;;;;;;;;;6113619;23;20026;-54
2023/06/05 05:07:46;;;;;;;18.48;7.95;;;;;;;;;;6114879;23;19920;-56
2023/06/05 05:10:14;;;;;;;;;;;;;;;;;;6113935;23;20234;-55
2023/06/05 05:12:48;;;;;;;22.17;9.82;;;;;;;;;;6113366;23;19917;-54
2023/06/05 05:15:16;;;;;;;18.60;10.07;;;;;;;;;;6111534;23;20089;-55
2023/06/05 05:17:51;;;;;;;19.52;10.85;;;;;;;;;;6116343;23;20022;-47
2023/06/05 05:20:19;;;;;;;19.67;12.20;;;;;;;;;;6113557;23;20362;-52
2023/06/05 05:22:46;;;;;;;;;;;;;;;;;;6116008;23;20338;-49
2023/06/05 05:25:20;;;;;;;19.70;10.55;;;;;;;;;;6116139;23;19928;-47
2023/06/05 05:27:47;;;;;;;16.15;10.07;;;;;;;;;;6115338;23;20045;-59
2023/06/05 05:30:21;;;;;;;22.83;12.05;;;;;;;;;;6113174;23;20521;-65
2023/06/05 05:32:48;;;;;;;17.95;10.65;;;;;;;;;;6115950;23;20025;-58
2023/06/05 05:35:16;;;;;;;18.08;11.35;;;;;;;;;;6115143;23;20050;-59
2023/06/05 05:37:49;;;;;;;18.25;11.23;;;;;;;;;;6118086;23;20085;-59
2023/06/05 05:40:29;;;;;;;20.45;11.68;;;;;;;;;;6114257;23;20018;-58
2023/06/05 05:43:03;;;;;;;17.20;10.63;;;;;;;;;;6114968;23;20025;-57
2023/06/05 05:45:39;;;;;;;17.30;11.50;;;;;;;;;;6116147;23;20041;-56
2023/06/05 05:48:36;;;;;;;14.77;9.88;;;;;;;;;;6094813;23;20603;-60
2023/06/05 05:51:03;;;;;;;19.02;10.35;;;;;;;;;;6115260;23;20022;-58
2023/06/05 05:53:37;;;;;;;19.48;10.15;;;;;;;;;;6089144;23;20124;-54
2023/06/05 05:56:05;;;;;;;13.43;9.32;;;;;;;;;;6115391;23;20030;-52
2023/06/05 05:58:32;;;;;;;14.73;8.82;;;;;;;;;;6106961;23;20033;-54
2023/06/05 06:01:06;;;;;;;14.77;9.45;;;;;;;;;;6115159;23;20029;-48
2023/06/05 06:03:36;;;;;;;16.20;9.90;;;;;;;;;;6112501;23;20029;-50
2023/06/05 06:06:12;;;;;;;14.85;8.88;;;;;;;;;;6110846;23;20113;-52
2023/06/05 06:08:39;;;;;;;15.68;9.02;;;;;;;;;;6111162;23;20057;-48
2023/06/05 06:11:07;;;;;;;12.23;7.40;;;;;;;;;;6112572;23;20030;-49
2023/06/05 06:13:41;;;;;;;16.80;9.20;;;;;;;;;;6113418;23;20084;-50
2023/06/05 06:16:08;;;;;;;14.85;8.73;;;;;;;;;;6109380;23;20096;-44
2023/06/05 06:18:43;;;;;;;12.20;8.52;;;;;;;;;;6110619;23;20030;-48
2023/06/05 06:21:11;;;;;;;17.63;8.57;;;;;;;;;;6111138;23;20097;-46
2023/06/05 06:23:38;;;;;;;10.95;7.72;;;;;;;;;;6111600;23;20022;-48
2023/06/05 06:26:14;;;;;;;12.50;6.68;;;;;;;;;;6112595;23;20109;-51
2023/06/05 06:28:42;;;;;;;15.15;7.60;;;;;;;;;;6114942;23;20085;-65
2023/06/05 06:31:16;;;;;;;15.10;7.65;;;;;;;;;;6115537;23;20018;-65
2023/06/05 06:33:44;;;;;;;15.63;8.13;;;;;;;;;;6116553;23;20033;-65
2023/06/05 06:36:12;;;;;;;11.95;7.40;;;;;;;;;;6117335;23;20050;-62
2023/06/05 06:38:45;;;;;;;12.23;6.72;;;;;;;;;;6111901;23;20793;-65
2023/06/05 06:41:12;;;;;;;9.77;6.88;;;;;;;;;;6116266;23;20033;-64
2023/06/05 06:43:53;;;;;;;8.68;6.18;;;;;;;;;;6116891;23;20030;-65
2023/06/05 06:46:20;;;;;;;9.45;6.38;;;;;;;;;;6114388;23;20030;-65
2023/06/05 06:48:54;;;;;;;13.07;6.82;;;;;;;;;;6116696;23;20088;-64
2023/06/05 06:51:28;;;;;;;11.75;6.60;;;;;;;;;;6117102;23;20033;-65
2023/06/05 06:54:02;;;;;;;10.30;5.65;;;;;;;;;;6113060;23;20033;-64
2023/06/05 06:56:37;;;;;;;11.73;6.85;;;;;;;;;;6114684;23;20417;-54
2023/06/05 06:59:14;;;;;;;14.43;6.40;;;;;;;;;;6112622;23;20029;-50
2023/06/05 07:02:07;;;;;;;11.00;6.35;;;;;;;;;;6113892;23;20077;-54
2023/06/05 07:04:42;;;;;;;13.45;6.18;;;;;;;;;;6111523;23;20022;-55
2023/06/05 07:07:16;;;;;;;13.85;5.85;;;;;;;;;;6115497;23;20029;-54
2023/06/05 07:09:51;;;;;;;12.15;7.03;;;;;;;;;;6113387;23;20026;-51
2023/06/05 07:12:24;;;;;;;11.65;5.63;;;;;;;;;;6115616;23;20064;-65
2023/06/05 07:14:58;;;;;;;14.70;6.40;;;;;;;;;;6115575;23;20030;-64
2023/06/05 07:17:28;;;;;;;11.80;5.85;;;;;;;;;;6114891;23;20085;-65
2023/06/05 07:20:05;;;;;;;11.05;5.50;;;;;;;;;;6115697;23;20029;-65
2023/06/05 07:22:32;;;;;;;10.50;6.07;;;;;;;;;;6114550;23;20481;-48
2023/06/05 07:25:00;;;;;;;10.73;5.35;;;;;;;;;;6115390;23;20026;-59
2023/06/05 07:27:35;;;;;;;8.70;5.38;;;;;;;;;;6116093;23;20026;-52
2023/06/05 07:30:03;;;;;;;9.27;5.03;;;;;;;;;;6115258;23;20093;-57
2023/06/05 07:32:30;;;;;;;9.10;4.85;;;;;;;;;;6116596;23;20084;-57
2023/06/05 07:35:04;;;;;;;11.23;5.22;;;;;;;;;;6114708;23;20033;-57
2023/06/05 07:37:31;;;;;;;11.32;4.93;;;;;;;;;;6117424;23;20026;-56
2023/06/05 07:40:05;;;;;;;10.82;4.78;;;;;;;;;;6115503;23;20477;-61
2023/06/05 07:42:39;;;;;;;14.70;4.88;;;;;;;;;;6115518;23;20081;-61
2023/06/05 07:45:13;;;;;;;11.10;5.32;;;;;;;;;;6113509;23;20543;-61
2023/06/05 07:47:40;;;;;;;8.70;5.18;;;;;;;;;;6117050;23;20026;-62
2023/06/05 07:50:08;;;;;;;10.45;4.43;;;;;;;;;;6115798;23;20030;-57
2023/06/05 07:52:42;;;;;;;7.07;4.40;;;;;;;;;;6117426;23;20022;-58
2023/06/05 07:55:09;;;;;;;9.77;4.57;;;;;;;;;;6115482;23;20025;-48
2023/06/05 07:57:43;;;;;;;8.07;4.20;;;;;;;;;;6116177;23;20477;-54
2023/06/05 08:00:11;;;;;;;8.50;4.43;;;;;;;;;;6114035;23;20025;-52
2023/06/05 08:02:38;;;;;;;;;;;;;;;;;;6116481;23;20106;-49
2023/06/05 08:05:14;;;;;;;8.38;4.63;;;;;;;;;;6114325;23;19956;-47
2023/06/05 08:07:41;;;;;;;8.40;3.88;;;;;;;;;;6115285;23;20105;-47
2023/06/05 08:10:15;;;;;;;7.65;4.15;;;;;;;;;;6114467;23;20048;-64
2023/06/05 08:12:42;;;;;;;;;;;;;;;;;;6115514;23;20134;-63
2023/06/05 08:15:10;;;;;;;8.90;4.10;;;;;;;;;;6112874;23;19917;-63
2023/06/05 08:17:44;;;;;;;8.60;3.72;;;;;;;;;;6115712;23;20545;-63
2023/06/05 08:20:11;;;;;;;6.55;3.30;;;;;;;;;;6114994;23;20410;-57
2023/06/05 08:22:46;;;;;;;10.32;4.00;;;;;;;;;;6117318;23;20018;-58
2023/06/05 08:25:13;;;;;;;;;;;;;;;;;;6115484;23;20025;-56
2023/06/05 08:27:40;;;;;;;6.53;3.35;;;;;;;;;;6116349;23;19921;-54
2023/06/05 08:30:14;;;;;;;8.38;3.40;;;;;;;;;;6115453;23;20031;-56
2023/06/05 08:32:43;;;;;;;;;;;;;;;;;;6119176;23;20263;-57
2023/06/05 08:35:16;;;;;;;7.03;3.60;;;;;;;;;;6116168;23;20379;-57
2023/06/05 08:37:43;;;;;;;6.13;2.83;;;;;;;;;;6119525;23;20425;-51
2023/06/05 08:40:12;;;;;;;7.85;3.70;;;;;;;;;;6116895;23;20406;-53
2023/06/05 08:42:52;;;;;;;5.05;2.95;;;;;;;;;;6113033;23;20033;-51
2023/06/05 08:45:19;;;;;;;6.18;3.20;;;;;;;;;;6117895;23;20089;-49
2023/06/05 08:47:55;;;;;;;6.55;3.40;;;;;;;;;;6116940;23;20025;-52
2023/06/05 08:50:23;;;;;;;6.07;3.08;;;;;;;;;;6115992;23;20489;-64
2023/06/05 08:53:00;;;;;;;8.95;3.45;;;;;;;;;;6117199;23;20022;-64
2023/06/05 08:55:28;;;;;;;7.30;3.58;;;;;;;;;;6118416;23;20073;-64
2023/06/05 08:58:03;;;;;;;9.05;3.88;;;;;;;;;;6117427;23;20025;-64
2023/06/05 09:00:30;;;;;;;7.15;3.35;;;;;;;;;;6116183;23;20022;-64
2023/06/05 09:03:05;;;;;;;7.75;3.35;;;;;;;;;;6114293;23;20026;-64
2023/06/05 09:05:33;;;;;;;7.35;3.30;;;;;;;;;;6114881;23;20168;-63
2023/06/05 09:08:00;;;;;;;7.03;3.55;;;;;;;;;;6115205;23;20026;-64
2023/06/05 09:10:34;;;;;;;6.40;3.05;;;;;;;;;;6114466;23;20030;-63
2023/06/05 09:13:02;;;;;;;7.20;2.80;;;;;;;;;;6114447;23;20077;-64
2023/06/05 09:15:30;;;;;;;8.07;3.58;;;;;;;;;;6114236;23;20037;-52
2023/06/05 09:18:11;;;;;;;4.30;2.90;;;;;;;;;;6113272;23;20086;-55
2023/06/05 09:20:45;;;;;;;5.90;3.10;;;;;;;;;;6113838;23;20033;-56
2023/06/05 09:23:24;;;;;;;6.40;3.30;;;;;;;;;;6113391;23;20455;-55
2023/06/05 09:25:59;;;;;;;4.75;2.80;;;;;;;;;;6112070;23;20044;-55
2023/06/05 09:28:27;;;;;;;4.90;2.78;;;;;;;;;;6117388;23;20028;-58
2023/06/05 09:30:59;;;;;;;9.68;3.30;;;;;;;;;;6085408;23;20029;-54
2023/06/05 09:33:34;;;;;;;5.43;3.15;;;;;;;;;;6115402;23;20030;-59
2023/06/05 09:36:03;;;;;;;6.85;3.08;;;;;;;;;;6114504;23;20025;-58
2023/06/05 09:38:38;;;;;;;6.20;2.95;;;;;;;;;;6113821;23;20030;-59
2023/06/05 09:41:10;;;;;;;6.00;3.38;;;;;;;;;;6113987;23;20052;-59
2023/06/05 09:43:50;;;;;;;5.47;2.85;;;;;;;;;;6115388;23;20030;-64
2023/06/05 09:46:18;;;;;;;6.43;2.70;;;;;;;;;;6114082;23;20026;-55
2023/06/05 09:48:58;;;;;;;6.97;2.80;;;;;;;;;;6114293;23;20092;-56
2023/06/05 09:51:32;;;;;;;4.38;3.03;;;;;;;;;;6087767;23;20360;-58
2023/06/05 09:54:06;;;;;;;5.93;2.67;;;;;;;;;;6115997;23;20118;-58
2023/06/05 09:56:34;;;;;;;6.43;2.97;;;;;;;;;;6115349;23;20025;-58
2023/06/05 09:59:11;;;;;;;5.00;3.15;;;;;;;;;;6113086;23;20022;-55
2023/06/05 10:01:41;;;;;;;5.22;2.80;;;;;;;;;;6114512;23;20030;-56
2023/06/05 10:04:17;;;;;;;6.88;3.08;;;;;;;;;;6116228;23;20026;-65
2023/06/05 10:06:44;;;;;;;5.53;2.83;;;;;;;;;;6112429;23;20032;-65
2023/06/05 10:09:19;;;;;;;4.55;2.80;;;;;;;;;;6117252;23;20069;-65
2023/06/05 10:11:49;;;;;;;16.30;3.47;;;;;;;;;;6089686;23;20030;-65
2023/06/05 10:14:23;;;;;;;6.30;3.00;;;;;;;;;;6115300;23;20080;-59
2023/06/05 10:16:51;;;;;;;6.15;3.40;;;;;;;;;;6114314;23;20252;-56
2023/06/05 10:19:26;;;;;;;5.07;2.67;;;;;;;;;;6115757;23;20026;-55
2023/06/05 10:21:53;;;;;;;4.90;3.30;;;;;;;;;;6115533;23;20485;-58
2023/06/05 10:24:22;;;;;;;5.07;2.60;;;;;;;;;;6115857;23;20025;-58
2023/06/05 10:26:57;;;;;;;6.07;2.60;;;;;;;;;;6115856;23;20034;-58
2023/06/05 10:29:27;;;;;;;5.95;3.03;;;;;;;;;;6112036;23;20073;-56
2023/06/05 10:32:08;;;;;;;3.33;2.53;;;;;;;;;;6113592;23;20084;-65
2023/06/05 10:34:48;;;;;;;4.80;2.67;;;;;;;;;;6114394;23;20061;-65
2023/06/05 10:37:22;;;;;;;4.70;2.60;;;;;;;;;;6114907;23;20025;-65
2023/06/05 10:39:50;;;;;;;7.82;2.88;;;;;;;;;;6114813;23;20022;-65
2023/06/05 10:42:31;;;;;;;4.80;2.85;;;;;;;;;;6110713;23;20022;-58
2023/06/05 10:44:58;;;;;;;3.92;2.50;;;;;;;;;;6114890;23;20037;-58
2023/06/05 10:47:33;;;;;;;4.43;2.60;;;;;;;;;;6115709;23;20026;-59
2023/06/05 10:50:16;;;;;;;4.32;2.35;;;;;;;;;;6114878;23;20089;-57
2023/06/05 10:52:50;;;;;;;5.43;2.83;;;;;;;;;;6114971;23;20041;-59
2023/06/05 10:55:18;;;;;;;;;;;;;;;;;;6116645;23;20029;-59
2023/06/05 10:58:03;;;;;;;5.65;2.58;;;;;;;;;;6115162;23;19980;-59
2023/06/05 11:00:31;;;;;;;7.07;3.00;;;;;;;;;;6116535;23;20080;-58
2023/06/05 11:03:06;;;;;;;5.72;2.80;;;;;;;;;;6114477;23;20100;-58
2023/06/05 11:05:33;;;;;;;5.97;2.88;;;;;;;;;;6116212;23;20114;-55
2023/06/05 11:08:01;;;;;;;;;;;;;;;;;;6115175;23;20434;-57
2023/06/05 11:10:35;;;;;;;4.38;2.60;;;;;;;;;;6114311;23;19921;-56
2023/06/05 11:13:03;;;;;;;7.63;2.63;;;;;;;;;;6113382;23;20026;-65
2023/06/05 11:15:39;;;;;;;6.30;2.58;;;;;;;;;;6092750;23;20022;-65
2023/06/05 11:18:25;;;;;;;4.75;2.85;;;;;;;;;;6112007;23;20022;-65
2023/06/05 11:21:00;;;;;;;8.90;2.75;;;;;;;;;;6115015;23;20026;-65
2023/06/05 11:23:28;;;;;;;6.60;2.58;;;;;;;;;;6111610;23;20121;-65
2023/06/05 11:25:59;;;;;;;4.90;2.75;;;;;;;;;;6114316;23;20018;-65
2023/06/05 11:28:44;;;;;;;6.45;2.90;;;;;;;;;;6115607;23;20121;-50
2023/06/05 11:31:11;;;;;;;6.03;2.50;;;;;;;;;;6088719;23;20026;-53
2023/06/05 11:33:45;;;;;;;4.13;2.20;;;;;;;;;;6116641;23;20057;-52
2023/06/05 11:36:12;;;;;;;;;;;;;;;;;;6115701;23;20037;-52
2023/06/05 11:38:54;;;;;;;5.35;2.60;;;;;;;;;;6115481;23;20049;-53
2023/06/05 11:41:29;;;;;;;3.38;2.10;;;;;;;;;;6114086;23;20021;-59
2023/06/05 11:44:09;;;;;;;6.40;2.40;;;;;;;;;;6114546;23;20053;-58
2023/06/05 11:46:40;;;;;;;5.30;2.33;;;;;;;;;;6115061;23;20030;-59
2023/06/05 11:49:27;;;;;;;4.70;2.40;;;;;;;;;;6112954;23;20248;-55
2023/06/05 11:51:55;;;;;;;3.55;2.20;;;;;;;;;;6115138;23;20085;-57
2023/06/05 11:54:33;;;;;;;7.78;2.60;;;;;;;;;;6116628;23;20069;-56
2023/06/05 11:57:07;;;;;;;3.80;2.33;;;;;;;;;;6114718;23;20393;-51
2023/06/05 11:59:41;;;;;;;4.25;2.50;;;;;;;;;;6118131;23;20031;-51
2023/06/05 12:02:08;;;;;;;4.53;2.35;;;;;;;;;;6114497;23;20029;-55
2023/06/05 12:04:36;;;;;;;;;;;;;;;;;;6114703;23;20596;-53
2023/06/05 12:07:09;;;;;;;3.10;2.15;;;;;;;;;;6112987;23;19925;-65
2023/06/05 12:09:36;;;;;;;;;;;;;;;;;;6114551;23;20021;-59
2023/06/05 12:12:10;;;;;;;3.95;2.60;;;;;;;;;;6112505;23;20363;-60
2023/06/05 12:14:38;;;;;;;4.80;2.40;;;;;;;;;;6111590;23;20029;-60
2023/06/05 12:17:11;;;;;;;6.32;2.45;;;;;;;;;;6117120;23;20026;-60
2023/06/05 12:19:53;;;;;;;3.85;2.30;;;;;;;;;;6111843;23;20623;-61
2023/06/05 12:22:20;;;;;;;7.53;2.42;;;;;;;;;;6113489;23;20632;-59
2023/06/05 12:24:54;;;;;;;4.82;2.28;;;;;;;;;;6117860;23;20536;-60
2023/06/05 12:27:34;;;;;;;6.03;2.58;;;;;;;;;;6112678;23;20317;-59
2023/06/05 12:30:09;;;;;;;4.28;2.45;;;;;;;;;;6116483;23;20029;-59
2023/06/05 12:32:38;;;;;;;4.93;2.45;;;;;;;;;;6112393;23;20077;-59
2023/06/05 12:35:19;;;;;;;3.20;2.60;;;;;;;;;;6116352;23;20053;-63
2023/06/05 12:37:47;;;;;;;5.97;2.53;;;;;;;;;;6117215;23;20493;-53
2023/06/05 12:40:21;;;;;;;4.25;2.33;;;;;;;;;;6109227;23;20231;-54
2023/06/05 12:43:10;;;;;;;3.83;2.28;;;;;;;;;;6112223;23;20030;-53
2023/06/05 12:45:44;;;;;;;4.07;2.30;;;;;;;;;;6110361;23;20025;-53
2023/06/05 12:48:12;;;;;;;3.50;2.30;;;;;;;;;;6117287;23;20089;-53
2023/06/05 12:50:42;;;;;;;4.70;2.65;;;;;;;;;;6114720;23;20497;-53
2023/06/05 12:53:16;;;;;;;6.72;2.50;;;;;;;;;;6117665;23;20022;-63
2023/06/05 12:55:43;;;;;;;4.63;2.50;;;;;;;;;;6113902;23;20029;-63
2023/06/05 12:58:18;;;;;;;7.57;2.55;;;;;;;;;;6113962;23;20837;-63
2023/06/05 13:00:45;;;;;;;5.32;2.50;;;;;;;;;;6114952;23;20435;-63
2023/06/05 13:03:12;;;;;;;6.53;2.40;;;;;;;;;;6117253;23;20032;-56
2023/06/05 13:05:46;;;;;;;3.88;1.92;;;;;;;;;;6113430;23;20109;-57
2023/06/05 13:08:14;;;;;;;;;;;;;;;;;;6117656;23;20393;-65
2023/06/05 13:10:47;;;;;;;4.10;2.30;;;;;;;;;;6110437;23;20341;-65
2023/06/05 13:13:16;;;;;;;7.60;2.47;;;;;;;;;;6112327;23;20485;-65
2023/06/05 13:15:51;;;;;;;2.90;2.25;;;;;;;;;;6092856;23;20026;-65
2023/06/05 13:18:18;;;;;;;5.47;2.50;;;;;;;;;;6113322;23;20022;-65
2023/06/05 13:20:45;;;;;;;;;;;;;;;;;;6115935;23;20030;-65
2023/06/05 13:23:19;;;;;;;5.10;2.20;;;;;;;;;;6111251;23;19991;-59
2023/06/05 13:25:47;;;;;;;5.35;2.40;;;;;;;;;;6115460;23;20049;-59
2023/06/05 13:28:20;;;;;;;4.03;2.10;;;;;;;;;;6116573;23;20366;-59
2023/06/05 13:30:48;;;;;;;;;;;;;;;;;;6115653;23;20212;-59
2023/06/05 13:33:15;;;;;;;2.58;1.98;;;;;;;;;;6114888;23;20345;-57
2023/06/05 13:35:48;;;;;;;6.68;2.35;;;;;;;;;;6113402;23;20497;-55
2023/06/05 13:38:15;;;;;;;;;;;;;;;;;;6116123;23;20026;-53
2023/06/05 13:40:51;;;;;;;5.82;2.28;;;;;;;;;;6116542;23;19916;-54
2023/06/05 13:43:25;;;;;;;4.40;2.45;;;;;;;;;;6115802;23;20462;-57
2023/06/05 13:45:58;;;;;;;4.03;2.50;;;;;;;;;;6116146;23;20026;-53
2023/06/05 13:48:26;;;;;;;;;;;;;;;;;;6118018;23;20049;-53
2023/06/05 13:50:53;;;;;;;5.70;2.42;;;;;;;;;;6114323;23;19920;-53
2023/06/05 13:53:27;;;;;;;5.85;2.28;;;;;;;;;;6111768;23;20056;-56
2023/06/05 13:55:54;;;;;;;5.15;2.50;;;;;;;;;;6117543;23;20083;-57
2023/06/05 13:58:28;;;;;;;5.20;2.35;;;;;;;;;;6114572;23;20021;-57
2023/06/05 14:01:02;;;;;;;5.88;2.63;;;;;;;;;;6116183;23;20030;-59
2023/06/05 14:03:30;;;;;;;3.95;2.50;;;;;;;;;;6115473;23;20049;-53
2023/06/05 14:05:58;;;;;;;5.57;2.33;;;;;;;;;;6114996;23;20049;-54
2023/06/05 14:08:32;;;;;;;7.10;2.35;;;;;;;;;;6117215;23;20053;-51
2023/06/05 14:11:00;;;;;;;7.93;2.85;;;;;;;;;;6115524;23;20026;-53
2023/06/05 14:13:35;;;;;;;4.22;2.25;;;;;;;;;;6115153;23;20081;-51
2023/06/05 14:16:03;;;;;;;7.35;2.33;;;;;;;;;;6116366;23;20029;-53
2023/06/05 14:18:30;;;;;;;5.68;2.10;;;;;;;;;;6116085;23;20022;-53
2023/06/05 14:21:04;;;;;;;8.50;2.80;;;;;;;;;;6089899;23;20026;-51
2023/06/05 14:23:32;;;;;;;;;;;;;;;;;;6117009;23;20310;-51
2023/06/05 14:26:05;;;;;;;10.10;2.92;;;;;;;;;;6113809;23;20000;-54
2023/06/05 14:28:33;;;;;;;5.97;2.40;;;;;;;;;;6117251;23;20040;-52
2023/06/05 14:31:00;;;;;;;8.40;2.92;;;;;;;;;;6115776;23;20030;-55
2023/06/05 14:33:35;;;;;;;7.38;2.50;;;;;;;;;;6116744;23;20022;-51
2023/06/05 14:36:04;;;;;;;5.20;2.28;;;;;;;;;;6089094;23;20065;-51
2023/06/05 14:38:38;;;;;;;12.43;2.92;;;;;;;;;;6116714;23;20028;-50
2023/06/05 14:41:05;;;;;;;6.93;2.80;;;;;;;;;;6115470;23;20036;-52
2023/06/05 14:43:39;;;;;;;5.70;2.95;;;;;;;;;;6116052;23;20026;-51
2023/06/05 14:46:13;;;;;;;5.05;2.70;;;;;;;;;;6116282;23;20089;-55
2023/06/05 14:48:41;;;;;;;5.18;2.78;;;;;;;;;;6114298;23;20034;-59
2023/06/05 14:51:16;;;;;;;6.97;2.65;;;;;;;;;;6116968;23;20041;-59
2023/06/05 14:53:43;;;;;;;9.77;2.92;;;;;;;;;;6116501;23;20026;-59
2023/06/05 14:56:11;;;;;;;8.98;2.97;;;;;;;;;;6116869;23;20030;-60
2023/06/05 14:58:44;;;;;;;7.45;3.28;;;;;;;;;;6117124;23;20541;-62
2023/06/05 15:01:13;;;;;;;7.72;2.88;;;;;;;;;;6115211;23;20497;-59
2023/06/05 15:03:48;;;;;;;6.82;2.70;;;;;;;;;;6115568;23;20386;-59
2023/06/05 15:06:15;;;;;;;6.88;2.90;;;;;;;;;;6116263;23;20489;-59
2023/06/05 15:08:51;;;;;;;5.53;2.50;;;;;;;;;;6115680;23;20037;-59
2023/06/05 15:11:24;;;;;;;5.05;2.67;;;;;;;;;;6113440;23;20021;-59
2023/06/05 15:13:52;;;;;;;7.35;3.20;;;;;;;;;;6113176;23;20092;-59